sensor_id;sensor_type;location;lat;lon;timestamp;temperature;humidity
530;DHT22;251;48.704;9.210;2023-04-03T00:01:30;5.00;23.50
530;DHT22;251;48.704;9.210;2023-04-03T00:03:57;4.90;23.10
530;DHT22;251;48.704;9.210;2023-04-03T00:06:24;4.90;23.00
530;DHT22;251;48.704;9.210;2023-04-03T00:08:53;4.90;23.30
530;DHT22;251;48.704;9.210;2023-04-03T00:11:19;4.90;23.40
530;DHT22;251;48.704;9.210;2023-04-03T00:13:47;4.90;23.40
530;DHT22;251;48.704;9.210;2023-04-03T00:16:14;4.90;22.30
530;DHT22;251;48.704;9.210;2023-04-03T00:18:40;4.90;23.40
530;DHT22;251;48.704;9.210;2023-04-03T00:21:09;5.00;23.20
530;DHT22;251;48.704;9.210;2023-04-03T00:23:36;4.90;23.80
530;DHT22;251;48.704;9.210;2023-04-03T00:26:04;4.80;23.30
530;DHT22;251;48.704;9.210;2023-04-03T00:28:31;4.90;23.40
530;DHT22;251;48.704;9.210;2023-04-03T00:30:58;4.60;23.50
530;DHT22;251;48.704;9.210;2023-04-03T00:33:25;5.00;23.50
530;DHT22;251;48.704;9.210;2023-04-03T00:35:52;4.70;23.60
530;DHT22;251;48.704;9.210;2023-04-03T00:38:18;4.60;23.50
530;DHT22;251;48.704;9.210;2023-04-03T00:40:47;4.80;23.40
530;DHT22;251;48.704;9.210;2023-04-03T00:43:18;5.00;23.70
530;DHT22;251;48.704;9.210;2023-04-03T00:45:47;4.80;24.10
530;DHT22;251;48.704;9.210;2023-04-03T00:48:18;4.80;23.90
530;DHT22;251;48.704;9.210;2023-04-03T00:50:46;4.60;22.80
530;DHT22;251;48.704;9.210;2023-04-03T00:53:17;4.70;23.20
530;DHT22;251;48.704;9.210;2023-04-03T00:55:47;4.70;22.40
530;DHT22;251;48.704;9.210;2023-04-03T00:58:16;4.70;23.60
530;DHT22;251;48.704;9.210;2023-04-03T01:00:48;4.60;22.90
530;DHT22;251;48.704;9.210;2023-04-03T01:03:17;4.70;23.50
530;DHT22;251;48.704;9.210;2023-04-03T01:05:43;4.60;24.00
530;DHT22;251;48.704;9.210;2023-04-03T01:08:10;4.70;22.30
530;DHT22;251;48.704;9.210;2023-04-03T01:10:37;4.70;22.40
530;DHT22;251;48.704;9.210;2023-04-03T01:13:20;4.80;24.40
530;DHT22;251;48.704;9.210;2023-04-03T01:15:47;4.70;23.60
530;DHT22;251;48.704;9.210;2023-04-03T01:18:14;4.70;23.50
530;DHT22;251;48.704;9.210;2023-04-03T01:21:02;4.40;23.10
530;DHT22;251;48.704;9.210;2023-04-03T01:23:51;4.70;23.30
530;DHT22;251;48.704;9.210;2023-04-03T01:26:19;4.70;24.10
530;DHT22;251;48.704;9.210;2023-04-03T01:28:48;4.70;24.00
530;DHT22;251;48.704;9.210;2023-04-03T01:31:20;4.60;23.40
530;DHT22;251;48.704;9.210;2023-04-03T01:33:51;4.40;23.30
530;DHT22;251;48.704;9.210;2023-04-03T01:36:20;4.60;24.10
530;DHT22;251;48.704;9.210;2023-04-03T01:38:48;4.60;24.00
530;DHT22;251;48.704;9.210;2023-04-03T01:41:15;4.70;24.00
530;DHT22;251;48.704;9.210;2023-04-03T01:43:43;4.60;23.80
530;DHT22;251;48.704;9.210;2023-04-03T01:46:10;4.70;23.70
530;DHT22;251;48.704;9.210;2023-04-03T01:48:37;4.60;23.50
530;DHT22;251;48.704;9.210;2023-04-03T01:51:05;4.70;23.60
530;DHT22;251;48.704;9.210;2023-04-03T01:53:32;4.40;23.20
530;DHT22;251;48.704;9.210;2023-04-03T01:55:59;4.30;23.00
530;DHT22;251;48.704;9.210;2023-04-03T01:58:26;4.40;23.30
530;DHT22;251;48.704;9.210;2023-04-03T02:00:54;4.30;23.10
530;DHT22;251;48.704;9.210;2023-04-03T02:03:21;4.30;22.50
530;DHT22;251;48.704;9.210;2023-04-03T02:05:48;4.50;22.80
530;DHT22;251;48.704;9.210;2023-04-03T02:08:17;4.60;22.80
530;DHT22;251;48.704;9.210;2023-04-03T02:10:44;4.40;22.50
530;DHT22;251;48.704;9.210;2023-04-03T02:13:11;4.40;22.70
530;DHT22;251;48.704;9.210;2023-04-03T02:15:38;4.30;23.10
530;DHT22;251;48.704;9.210;2023-04-03T02:18:06;4.30;22.50
530;DHT22;251;48.704;9.210;2023-04-03T02:20:33;4.10;22.90
530;DHT22;251;48.704;9.210;2023-04-03T02:23:00;4.50;23.10
530;DHT22;251;48.704;9.210;2023-04-03T02:25:29;4.50;22.80
530;DHT22;251;48.704;9.210;2023-04-03T02:27:56;4.30;23.40
530;DHT22;251;48.704;9.210;2023-04-03T02:30:23;4.40;23.30
530;DHT22;251;48.704;9.210;2023-04-03T02:32:50;4.40;23.00
530;DHT22;251;48.704;9.210;2023-04-03T02:35:18;4.30;23.00
530;DHT22;251;48.704;9.210;2023-04-03T02:37:46;4.40;23.70
530;DHT22;251;48.704;9.210;2023-04-03T02:40:13;4.40;23.40
530;DHT22;251;48.704;9.210;2023-04-03T02:42:41;4.50;23.90
530;DHT22;251;48.704;9.210;2023-04-03T02:45:09;4.30;23.40
530;DHT22;251;48.704;9.210;2023-04-03T02:47:35;4.60;24.00
530;DHT22;251;48.704;9.210;2023-04-03T02:50:03;4.70;23.70
530;DHT22;251;48.704;9.210;2023-04-03T02:52:31;4.40;23.70
530;DHT22;251;48.704;9.210;2023-04-03T02:54:57;4.50;22.90
530;DHT22;251;48.704;9.210;2023-04-03T02:57:24;4.40;23.40
530;DHT22;251;48.704;9.210;2023-04-03T02:59:52;4.40;22.00
530;DHT22;251;48.704;9.210;2023-04-03T03:02:19;4.50;22.80
530;DHT22;251;48.704;9.210;2023-04-03T03:04:46;4.60;20.80
530;DHT22;251;48.704;9.210;2023-04-03T03:07:13;4.30;21.40
530;DHT22;251;48.704;9.210;2023-04-03T03:09:40;4.20;21.90
530;DHT22;251;48.704;9.210;2023-04-03T03:12:07;4.40;21.80
530;DHT22;251;48.704;9.210;2023-04-03T03:14:34;4.30;21.40
530;DHT22;251;48.704;9.210;2023-04-03T03:17:02;4.50;21.50
530;DHT22;251;48.704;9.210;2023-04-03T03:19:29;4.40;21.80
530;DHT22;251;48.704;9.210;2023-04-03T03:21:56;4.20;20.80
530;DHT22;251;48.704;9.210;2023-04-03T03:24:23;4.50;21.30
530;DHT22;251;48.704;9.210;2023-04-03T03:26:50;4.30;21.80
530;DHT22;251;48.704;9.210;2023-04-03T03:29:17;4.40;21.70
530;DHT22;251;48.704;9.210;2023-04-03T03:31:44;4.20;21.20
530;DHT22;251;48.704;9.210;2023-04-03T03:34:12;4.40;21.20
530;DHT22;251;48.704;9.210;2023-04-03T03:36:39;4.40;21.60
530;DHT22;251;48.704;9.210;2023-04-03T03:39:06;4.50;20.80
530;DHT22;251;48.704;9.210;2023-04-03T03:41:33;4.30;22.20
530;DHT22;251;48.704;9.210;2023-04-03T03:44:00;4.40;21.70
530;DHT22;251;48.704;9.210;2023-04-03T03:46:30;4.30;20.80
530;DHT22;251;48.704;9.210;2023-04-03T03:48:56;4.30;21.40
530;DHT22;251;48.704;9.210;2023-04-03T03:51:24;4.50;21.20
530;DHT22;251;48.704;9.210;2023-04-03T03:53:52;4.40;22.30
530;DHT22;251;48.704;9.210;2023-04-03T03:56:19;4.50;20.70
530;DHT22;251;48.704;9.210;2023-04-03T03:58:46;4.40;20.60
530;DHT22;251;48.704;9.210;2023-04-03T04:01:14;4.30;21.10
530;DHT22;251;48.704;9.210;2023-04-03T04:03:46;4.40;21.30
530;DHT22;251;48.704;9.210;2023-04-03T04:06:17;4.40;21.80
530;DHT22;251;48.704;9.210;2023-04-03T04:08:46;4.30;21.40
530;DHT22;251;48.704;9.210;2023-04-03T04:11:14;4.60;22.10
530;DHT22;251;48.704;9.210;2023-04-03T04:13:42;4.40;21.30
530;DHT22;251;48.704;9.210;2023-04-03T04:16:11;4.30;21.40
530;DHT22;251;48.704;9.210;2023-04-03T04:18:38;4.20;21.70
530;DHT22;251;48.704;9.210;2023-04-03T04:21:04;4.30;22.00
530;DHT22;251;48.704;9.210;2023-04-03T04:23:31;4.40;22.10
530;DHT22;251;48.704;9.210;2023-04-03T04:26:01;4.40;21.70
530;DHT22;251;48.704;9.210;2023-04-03T04:28:31;4.30;22.40
530;DHT22;251;48.704;9.210;2023-04-03T04:30:59;4.40;21.40
530;DHT22;251;48.704;9.210;2023-04-03T04:33:27;4.40;20.80
530;DHT22;251;48.704;9.210;2023-04-03T04:35:57;4.40;20.40
530;DHT22;251;48.704;9.210;2023-04-03T04:38:24;4.40;20.80
530;DHT22;251;48.704;9.210;2023-04-03T04:40:52;4.40;19.90
530;DHT22;251;48.704;9.210;2023-04-03T04:43:21;4.40;19.60
530;DHT22;251;48.704;9.210;2023-04-03T04:46:00;4.30;20.10
530;DHT22;251;48.704;9.210;2023-04-03T04:48:27;4.40;19.90
530;DHT22;251;48.704;9.210;2023-04-03T04:50:54;4.30;20.10
530;DHT22;251;48.704;9.210;2023-04-03T04:53:21;4.40;19.50
530;DHT22;251;48.704;9.210;2023-04-03T04:55:48;4.30;19.50
530;DHT22;251;48.704;9.210;2023-04-03T04:58:15;4.40;19.50
530;DHT22;251;48.704;9.210;2023-04-03T05:00:44;4.20;19.20
530;DHT22;251;48.704;9.210;2023-04-03T05:03:11;4.10;19.50
530;DHT22;251;48.704;9.210;2023-04-03T05:05:38;4.40;19.30
530;DHT22;251;48.704;9.210;2023-04-03T05:08:05;4.40;19.70
530;DHT22;251;48.704;9.210;2023-04-03T05:10:34;4.40;20.00
530;DHT22;251;48.704;9.210;2023-04-03T05:13:01;4.40;20.40
530;DHT22;251;48.704;9.210;2023-04-03T05:15:28;4.40;18.60
530;DHT22;251;48.704;9.210;2023-04-03T05:17:56;4.40;18.30
530;DHT22;251;48.704;9.210;2023-04-03T05:20:23;4.30;18.60
530;DHT22;251;48.704;9.210;2023-04-03T05:22:51;4.30;19.30
530;DHT22;251;48.704;9.210;2023-04-03T05:25:18;4.40;17.30
530;DHT22;251;48.704;9.210;2023-04-03T05:27:45;4.40;17.90
530;DHT22;251;48.704;9.210;2023-04-03T05:30:12;4.00;18.20
530;DHT22;251;48.704;9.210;2023-04-03T05:32:40;4.40;17.80
530;DHT22;251;48.704;9.210;2023-04-03T05:35:16;4.40;17.90
530;DHT22;251;48.704;9.210;2023-04-03T05:37:44;4.20;17.20
530;DHT22;251;48.704;9.210;2023-04-03T05:40:13;4.30;17.90
530;DHT22;251;48.704;9.210;2023-04-03T05:42:42;4.30;17.50
530;DHT22;251;48.704;9.210;2023-04-03T05:45:11;4.00;17.60
530;DHT22;251;48.704;9.210;2023-04-03T05:47:38;4.40;17.00
530;DHT22;251;48.704;9.210;2023-04-03T05:50:06;4.40;18.10
530;DHT22;251;48.704;9.210;2023-04-03T05:52:36;4.30;17.30
530;DHT22;251;48.704;9.210;2023-04-03T05:55:04;4.50;17.80
530;DHT22;251;48.704;9.210;2023-04-03T05:57:33;4.20;18.00
530;DHT22;251;48.704;9.210;2023-04-03T06:00:00;4.40;18.00
530;DHT22;251;48.704;9.210;2023-04-03T06:02:29;4.30;17.40
530;DHT22;251;48.704;9.210;2023-04-03T06:04:57;4.10;17.80
530;DHT22;251;48.704;9.210;2023-04-03T06:07:24;4.20;17.40
530;DHT22;251;48.704;9.210;2023-04-03T06:09:56;4.10;18.10
530;DHT22;251;48.704;9.210;2023-04-03T06:12:24;4.10;17.80
530;DHT22;251;48.704;9.210;2023-04-03T06:14:51;4.20;18.10
530;DHT22;251;48.704;9.210;2023-04-03T06:17:18;4.00;18.00
530;DHT22;251;48.704;9.210;2023-04-03T06:19:45;4.20;17.90
530;DHT22;251;48.704;9.210;2023-04-03T06:22:13;4.20;18.90
530;DHT22;251;48.704;9.210;2023-04-03T06:24:41;4.00;18.50
530;DHT22;251;48.704;9.210;2023-04-03T06:27:11;4.30;18.70
530;DHT22;251;48.704;9.210;2023-04-03T06:29:38;4.00;18.40
530;DHT22;251;48.704;9.210;2023-04-03T06:32:05;4.10;18.50
530;DHT22;251;48.704;9.210;2023-04-03T06:34:32;4.40;18.70
530;DHT22;251;48.704;9.210;2023-04-03T06:36:59;4.00;17.70
530;DHT22;251;48.704;9.210;2023-04-03T06:39:26;4.40;18.50
530;DHT22;251;48.704;9.210;2023-04-03T06:41:52;4.40;18.00
530;DHT22;251;48.704;9.210;2023-04-03T06:44:29;4.30;18.20
530;DHT22;251;48.704;9.210;2023-04-03T06:46:56;4.40;18.20
530;DHT22;251;48.704;9.210;2023-04-03T06:49:23;4.40;19.00
530;DHT22;251;48.704;9.210;2023-04-03T06:51:50;4.40;18.20
530;DHT22;251;48.704;9.210;2023-04-03T06:54:17;4.40;18.80
530;DHT22;251;48.704;9.210;2023-04-03T06:56:44;4.40;19.10
530;DHT22;251;48.704;9.210;2023-04-03T06:59:12;4.40;18.10
530;DHT22;251;48.704;9.210;2023-04-03T07:01:42;4.40;18.20
530;DHT22;251;48.704;9.210;2023-04-03T07:04:09;4.40;18.50
530;DHT22;251;48.704;9.210;2023-04-03T07:06:35;4.40;18.10
530;DHT22;251;48.704;9.210;2023-04-03T07:09:02;4.40;17.70
530;DHT22;251;48.704;9.210;2023-04-03T07:11:29;4.40;18.10
530;DHT22;251;48.704;9.210;2023-04-03T07:13:56;4.50;18.50
530;DHT22;251;48.704;9.210;2023-04-03T07:16:23;4.40;18.10
530;DHT22;251;48.704;9.210;2023-04-03T07:18:51;4.50;18.50
530;DHT22;251;48.704;9.210;2023-04-03T07:21:18;4.40;18.50
530;DHT22;251;48.704;9.210;2023-04-03T07:23:45;4.40;19.20
530;DHT22;251;48.704;9.210;2023-04-03T07:26:11;4.30;19.30
530;DHT22;251;48.704;9.210;2023-04-03T07:28:38;4.70;19.00
530;DHT22;251;48.704;9.210;2023-04-03T07:31:09;4.70;18.90
530;DHT22;251;48.704;9.210;2023-04-03T07:33:39;4.60;19.20
530;DHT22;251;48.704;9.210;2023-04-03T07:36:08;4.70;18.90
530;DHT22;251;48.704;9.210;2023-04-03T07:38:36;4.70;18.80
530;DHT22;251;48.704;9.210;2023-04-03T07:41:04;4.70;18.80
530;DHT22;251;48.704;9.210;2023-04-03T07:43:31;4.60;18.70
530;DHT22;251;48.704;9.210;2023-04-03T07:45:58;4.90;18.50
530;DHT22;251;48.704;9.210;2023-04-03T07:48:26;4.70;19.80
530;DHT22;251;48.704;9.210;2023-04-03T07:50:53;4.80;19.00
530;DHT22;251;48.704;9.210;2023-04-03T07:53:21;4.60;17.80
530;DHT22;251;48.704;9.210;2023-04-03T07:55:48;4.70;18.70
530;DHT22;251;48.704;9.210;2023-04-03T07:58:18;4.90;18.70
530;DHT22;251;48.704;9.210;2023-04-03T08:00:45;5.10;19.10
530;DHT22;251;48.704;9.210;2023-04-03T08:03:12;5.00;18.90
530;DHT22;251;48.704;9.210;2023-04-03T08:05:41;5.00;18.00
530;DHT22;251;48.704;9.210;2023-04-03T08:08:09;5.10;18.70
530;DHT22;251;48.704;9.210;2023-04-03T08:10:38;5.00;18.80
530;DHT22;251;48.704;9.210;2023-04-03T08:13:06;5.00;18.80
530;DHT22;251;48.704;9.210;2023-04-03T08:15:33;5.00;18.80
530;DHT22;251;48.704;9.210;2023-04-03T08:18:00;5.20;18.70
530;DHT22;251;48.704;9.210;2023-04-03T08:20:27;5.00;18.50
530;DHT22;251;48.704;9.210;2023-04-03T08:22:54;5.00;18.80
530;DHT22;251;48.704;9.210;2023-04-03T08:25:21;5.30;18.00
530;DHT22;251;48.704;9.210;2023-04-03T08:27:49;5.40;18.10
530;DHT22;251;48.704;9.210;2023-04-03T08:30:16;5.30;18.20
530;DHT22;251;48.704;9.210;2023-04-03T08:32:43;5.20;18.40
530;DHT22;251;48.704;9.210;2023-04-03T08:35:10;5.40;18.50
530;DHT22;251;48.704;9.210;2023-04-03T08:37:38;5.30;17.80
530;DHT22;251;48.704;9.210;2023-04-03T08:40:07;5.50;17.50
530;DHT22;251;48.704;9.210;2023-04-03T08:42:42;5.60;18.00
530;DHT22;251;48.704;9.210;2023-04-03T08:45:15;5.60;17.40
530;DHT22;251;48.704;9.210;2023-04-03T08:47:48;5.60;17.70
530;DHT22;251;48.704;9.210;2023-04-03T08:50:28;5.60;17.20
530;DHT22;251;48.704;9.210;2023-04-03T08:52:58;5.80;18.00
530;DHT22;251;48.704;9.210;2023-04-03T08:55:28;6.10;17.70
530;DHT22;251;48.704;9.210;2023-04-03T08:58:00;6.00;16.40
530;DHT22;251;48.704;9.210;2023-04-03T09:00:34;5.80;16.90
530;DHT22;251;48.704;9.210;2023-04-03T09:03:04;6.10;17.30
530;DHT22;251;48.704;9.210;2023-04-03T09:05:39;6.00;17.50
530;DHT22;251;48.704;9.210;2023-04-03T09:08:18;6.10;16.80
530;DHT22;251;48.704;9.210;2023-04-03T09:10:45;5.90;15.10
530;DHT22;251;48.704;9.210;2023-04-03T09:13:20;6.00;16.50
530;DHT22;251;48.704;9.210;2023-04-03T09:15:52;5.90;16.60
530;DHT22;251;48.704;9.210;2023-04-03T09:18:21;5.90;16.30
530;DHT22;251;48.704;9.210;2023-04-03T09:20:56;6.20;16.10
530;DHT22;251;48.704;9.210;2023-04-03T09:23:28;6.10;15.80
530;DHT22;251;48.704;9.210;2023-04-03T09:26:02;6.20;15.10
530;DHT22;251;48.704;9.210;2023-04-03T09:28:34;6.00;15.30
530;DHT22;251;48.704;9.210;2023-04-03T09:31:16;5.90;14.90
530;DHT22;251;48.704;9.210;2023-04-03T09:33:44;5.90;15.20
530;DHT22;251;48.704;9.210;2023-04-03T09:36:12;5.90;14.60
530;DHT22;251;48.704;9.210;2023-04-03T09:38:39;6.10;15.30
530;DHT22;251;48.704;9.210;2023-04-03T09:41:07;5.90;14.90
530;DHT22;251;48.704;9.210;2023-04-03T09:43:52;6.10;14.00
530;DHT22;251;48.704;9.210;2023-04-03T09:46:29;6.20;13.60
530;DHT22;251;48.704;9.210;2023-04-03T09:48:59;5.90;14.60
530;DHT22;251;48.704;9.210;2023-04-03T09:51:27;6.20;14.10
530;DHT22;251;48.704;9.210;2023-04-03T09:53:54;6.40;14.70
530;DHT22;251;48.704;9.210;2023-04-03T09:56:24;6.50;15.30
530;DHT22;251;48.704;9.210;2023-04-03T09:59:07;6.70;14.60
530;DHT22;251;48.704;9.210;2023-04-03T10:01:38;6.80;14.20
530;DHT22;251;48.704;9.210;2023-04-03T10:04:10;6.80;14.20
530;DHT22;251;48.704;9.210;2023-04-03T10:06:39;6.80;14.50
530;DHT22;251;48.704;9.210;2023-04-03T10:09:17;6.80;13.70
530;DHT22;251;48.704;9.210;2023-04-03T10:12:00;6.90;12.00
530;DHT22;251;48.704;9.210;2023-04-03T10:14:28;6.80;12.00
530;DHT22;251;48.704;9.210;2023-04-03T10:17:04;6.70;12.00
530;DHT22;251;48.704;9.210;2023-04-03T10:19:39;6.80;12.60
530;DHT22;251;48.704;9.210;2023-04-03T10:22:15;6.70;13.20
530;DHT22;251;48.704;9.210;2023-04-03T10:24:54;6.80;13.30
530;DHT22;251;48.704;9.210;2023-04-03T10:27:36;6.20;12.80
530;DHT22;251;48.704;9.210;2023-04-03T10:30:23;6.20;12.40
530;DHT22;251;48.704;9.210;2023-04-03T10:33:01;6.40;12.70
530;DHT22;251;48.704;9.210;2023-04-03T10:35:42;6.50;12.70
530;DHT22;251;48.704;9.210;2023-04-03T10:38:17;6.40;12.80
530;DHT22;251;48.704;9.210;2023-04-03T10:40:52;6.50;12.50
530;DHT22;251;48.704;9.210;2023-04-03T10:43:27;6.40;12.60
530;DHT22;251;48.704;9.210;2023-04-03T10:46:02;6.40;12.50
530;DHT22;251;48.704;9.210;2023-04-03T10:48:43;6.30;11.30
530;DHT22;251;48.704;9.210;2023-04-03T10:51:19;6.40;12.00
530;DHT22;251;48.704;9.210;2023-04-03T10:53:55;6.50;12.60
530;DHT22;251;48.704;9.210;2023-04-03T10:56:30;6.00;12.90
530;DHT22;251;48.704;9.210;2023-04-03T10:59:05;6.40;13.30
530;DHT22;251;48.704;9.210;2023-04-03T11:01:37;6.40;13.30
530;DHT22;251;48.704;9.210;2023-04-03T11:04:07;6.00;12.80
530;DHT22;251;48.704;9.210;2023-04-03T11:06:39;6.00;12.70
530;DHT22;251;48.704;9.210;2023-04-03T11:09:15;5.90;13.10
530;DHT22;251;48.704;9.210;2023-04-03T11:11:45;6.40;13.10
530;DHT22;251;48.704;9.210;2023-04-03T11:14:19;5.90;13.50
530;DHT22;251;48.704;9.210;2023-04-03T11:16:53;6.30;13.60
530;DHT22;251;48.704;9.210;2023-04-03T11:19:31;5.90;13.70
530;DHT22;251;48.704;9.210;2023-04-03T11:22:04;6.10;12.90
530;DHT22;251;48.704;9.210;2023-04-03T11:24:36;5.90;12.00
530;DHT22;251;48.704;9.210;2023-04-03T11:27:05;6.40;12.90
530;DHT22;251;48.704;9.210;2023-04-03T11:29:35;6.00;11.40
530;DHT22;251;48.704;9.210;2023-04-03T11:32:21;5.90;11.50
530;DHT22;251;48.704;9.210;2023-04-03T11:34:55;6.30;12.60
530;DHT22;251;48.704;9.210;2023-04-03T11:37:28;5.90;12.20
530;DHT22;251;48.704;9.210;2023-04-03T11:39:58;6.30;12.30
530;DHT22;251;48.704;9.210;2023-04-03T11:42:34;5.90;11.50
530;DHT22;251;48.704;9.210;2023-04-03T11:45:31;5.90;10.70
530;DHT22;251;48.704;9.210;2023-04-03T11:48:00;6.30;10.80
530;DHT22;251;48.704;9.210;2023-04-03T11:50:40;6.30;10.20
530;DHT22;251;48.704;9.210;2023-04-03T11:53:29;6.40;10.60
530;DHT22;251;48.704;9.210;2023-04-03T11:56:28;6.40;10.70
530;DHT22;251;48.704;9.210;2023-04-03T11:59:21;6.60;9.50
530;DHT22;251;48.704;9.210;2023-04-03T12:01:48;6.70;9.50
530;DHT22;251;48.704;9.210;2023-04-03T12:04:17;6.70;9.40
530;DHT22;251;48.704;9.210;2023-04-03T12:07:13;6.70;9.20
530;DHT22;251;48.704;9.210;2023-04-03T12:12:56;6.60;9.20
530;DHT22;251;48.704;9.210;2023-04-03T12:15:52;6.20;8.80
530;DHT22;251;48.704;9.210;2023-04-03T12:18:41;6.50;9.10
530;DHT22;251;48.704;9.210;2023-04-03T12:21:09;6.80;8.90
530;DHT22;251;48.704;9.210;2023-04-03T12:24:00;6.30;8.20
530;DHT22;251;48.704;9.210;2023-04-03T12:26:31;6.50;8.40
530;DHT22;251;48.704;9.210;2023-04-03T12:28:59;6.40;9.20
530;DHT22;251;48.704;9.210;2023-04-03T12:31:38;6.30;8.70
530;DHT22;251;48.704;9.210;2023-04-03T12:34:17;6.70;8.90
530;DHT22;251;48.704;9.210;2023-04-03T12:36:54;6.50;9.60
530;DHT22;251;48.704;9.210;2023-04-03T12:39:51;6.80;8.90
530;DHT22;251;48.704;9.210;2023-04-03T12:42:31;6.80;9.10
530;DHT22;251;48.704;9.210;2023-04-03T12:45:03;6.90;9.10
530;DHT22;251;48.704;9.210;2023-04-03T12:47:37;6.80;9.50
530;DHT22;251;48.704;9.210;2023-04-03T12:50:17;6.70;10.10
530;DHT22;251;48.704;9.210;2023-04-03T12:52:50;6.80;8.30
530;DHT22;251;48.704;9.210;2023-04-03T12:55:21;6.90;9.10
530;DHT22;251;48.704;9.210;2023-04-03T12:57:48;6.70;10.10
530;DHT22;251;48.704;9.210;2023-04-03T13:00:20;6.90;8.90
530;DHT22;251;48.704;9.210;2023-04-03T13:02:47;6.70;7.30
530;DHT22;251;48.704;9.210;2023-04-03T13:05:17;7.00;8.30
530;DHT22;251;48.704;9.210;2023-04-03T13:07:48;6.80;5.90
530;DHT22;251;48.704;9.210;2023-04-03T13:10:17;7.10;7.10
530;DHT22;251;48.704;9.210;2023-04-03T13:12:48;7.00;6.00
530;DHT22;251;48.704;9.210;2023-04-03T13:15:18;6.70;4.30
530;DHT22;251;48.704;9.210;2023-04-03T13:17:45;6.70;4.00
530;DHT22;251;48.704;9.210;2023-04-03T13:20:17;7.00;5.40
530;DHT22;251;48.704;9.210;2023-04-03T13:22:50;7.10;7.10
530;DHT22;251;48.704;9.210;2023-04-03T13:25:20;6.90;6.30
530;DHT22;251;48.704;9.210;2023-04-03T13:27:50;7.10;6.80
530;DHT22;251;48.704;9.210;2023-04-03T13:30:27;7.10;6.50
530;DHT22;251;48.704;9.210;2023-04-03T13:32:54;7.10;6.10
530;DHT22;251;48.704;9.210;2023-04-03T13:35:31;7.00;7.10
530;DHT22;251;48.704;9.210;2023-04-03T13:38:00;7.00;7.20
530;DHT22;251;48.704;9.210;2023-04-03T13:40:28;7.10;8.60
530;DHT22;251;48.704;9.210;2023-04-03T13:43:05;7.00;8.60
530;DHT22;251;48.704;9.210;2023-04-03T13:45:32;7.10;6.60
530;DHT22;251;48.704;9.210;2023-04-03T13:48:16;7.10;7.20
530;DHT22;251;48.704;9.210;2023-04-03T13:50:53;7.10;6.00
530;DHT22;251;48.704;9.210;2023-04-03T13:53:20;7.10;6.90
530;DHT22;251;48.704;9.210;2023-04-03T13:56:19;7.20;7.10
530;DHT22;251;48.704;9.210;2023-04-03T13:58:58;7.10;6.10
530;DHT22;251;48.704;9.210;2023-04-03T14:01:26;7.10;5.80
530;DHT22;251;48.704;9.210;2023-04-03T14:04:01;7.10;5.60
530;DHT22;251;48.704;9.210;2023-04-03T14:06:28;7.40;6.10
530;DHT22;251;48.704;9.210;2023-04-03T14:08:55;7.00;4.60
530;DHT22;251;48.704;9.210;2023-04-03T14:11:24;7.10;4.00
530;DHT22;251;48.704;9.210;2023-04-03T14:13:53;7.30;4.10
530;DHT22;251;48.704;9.210;2023-04-03T14:16:24;7.40;5.00
530;DHT22;251;48.704;9.210;2023-04-03T14:18:52;7.00;5.00
530;DHT22;251;48.704;9.210;2023-04-03T14:21:21;7.40;4.40
530;DHT22;251;48.704;9.210;2023-04-03T14:23:47;7.40;3.40
530;DHT22;251;48.704;9.210;2023-04-03T14:26:16;7.40;4.70
530;DHT22;251;48.704;9.210;2023-04-03T14:28:44;7.40;5.40
530;DHT22;251;48.704;9.210;2023-04-03T14:31:12;7.30;4.80
530;DHT22;251;48.704;9.210;2023-04-03T14:33:41;7.10;5.00
530;DHT22;251;48.704;9.210;2023-04-03T14:36:12;7.20;3.90
530;DHT22;251;48.704;9.210;2023-04-03T14:38:41;7.20;3.40
530;DHT22;251;48.704;9.210;2023-04-03T14:41:09;7.10;4.80
530;DHT22;251;48.704;9.210;2023-04-03T14:43:37;7.10;5.30
530;DHT22;251;48.704;9.210;2023-04-03T14:46:04;7.10;4.70
530;DHT22;251;48.704;9.210;2023-04-03T14:48:32;7.10;5.40
530;DHT22;251;48.704;9.210;2023-04-03T14:51:00;7.20;4.90
530;DHT22;251;48.704;9.210;2023-04-03T14:53:27;7.30;5.60
530;DHT22;251;48.704;9.210;2023-04-03T14:55:55;7.40;6.20
530;DHT22;251;48.704;9.210;2023-04-03T14:58:22;7.50;5.50
530;DHT22;251;48.704;9.210;2023-04-03T15:00:49;7.70;5.20
530;DHT22;251;48.704;9.210;2023-04-03T15:03:17;7.90;4.50
530;DHT22;251;48.704;9.210;2023-04-03T15:05:46;7.40;4.10
530;DHT22;251;48.704;9.210;2023-04-03T15:08:20;7.40;3.90
530;DHT22;251;48.704;9.210;2023-04-03T15:10:48;7.40;4.70
530;DHT22;251;48.704;9.210;2023-04-03T15:13:15;7.50;5.50
530;DHT22;251;48.704;9.210;2023-04-03T15:15:42;7.30;5.30
530;DHT22;251;48.704;9.210;2023-04-03T15:18:15;7.40;6.40
530;DHT22;251;48.704;9.210;2023-04-03T15:20:45;7.50;6.20
530;DHT22;251;48.704;9.210;2023-04-03T15:23:13;7.30;5.90
530;DHT22;251;48.704;9.210;2023-04-03T15:25:43;7.40;5.90
530;DHT22;251;48.704;9.210;2023-04-03T15:28:18;7.50;5.50
530;DHT22;251;48.704;9.210;2023-04-03T15:30:45;7.30;4.90
530;DHT22;251;48.704;9.210;2023-04-03T15:33:11;7.30;5.10
530;DHT22;251;48.704;9.210;2023-04-03T15:35:38;7.30;5.30
530;DHT22;251;48.704;9.210;2023-04-03T15:38:05;7.40;5.30
530;DHT22;251;48.704;9.210;2023-04-03T15:40:32;7.40;6.10
530;DHT22;251;48.704;9.210;2023-04-03T15:43:00;7.40;5.20
530;DHT22;251;48.704;9.210;2023-04-03T15:45:29;7.40;4.60
530;DHT22;251;48.704;9.210;2023-04-03T15:47:56;7.00;3.80
530;DHT22;251;48.704;9.210;2023-04-03T15:50:23;7.20;4.30
530;DHT22;251;48.704;9.210;2023-04-03T15:52:50;7.10;4.20
530;DHT22;251;48.704;9.210;2023-04-03T15:55:20;7.00;4.10
530;DHT22;251;48.704;9.210;2023-04-03T15:57:47;7.10;5.00
530;DHT22;251;48.704;9.210;2023-04-03T16:00:15;7.00;3.80
530;DHT22;251;48.704;9.210;2023-04-03T16:02:44;7.10;4.30
530;DHT22;251;48.704;9.210;2023-04-03T16:05:12;7.10;4.30
530;DHT22;251;48.704;9.210;2023-04-03T16:07:41;7.10;3.50
530;DHT22;251;48.704;9.210;2023-04-03T16:10:09;7.10;4.30
530;DHT22;251;48.704;9.210;2023-04-03T16:12:36;7.10;4.70
530;DHT22;251;48.704;9.210;2023-04-03T16:15:04;7.10;5.10
530;DHT22;251;48.704;9.210;2023-04-03T16:17:33;6.90;3.20
530;DHT22;251;48.704;9.210;2023-04-03T16:20:00;7.10;4.30
530;DHT22;251;48.704;9.210;2023-04-03T16:22:28;7.00;3.20
530;DHT22;251;48.704;9.210;2023-04-03T16:24:55;7.10;3.80
530;DHT22;251;48.704;9.210;2023-04-03T16:27:22;7.00;4.10
530;DHT22;251;48.704;9.210;2023-04-03T16:29:53;7.00;3.30
530;DHT22;251;48.704;9.210;2023-04-03T16:32:20;7.10;4.00
530;DHT22;251;48.704;9.210;2023-04-03T16:34:48;7.10;3.70
530;DHT22;251;48.704;9.210;2023-04-03T16:37:15;7.00;3.70
530;DHT22;251;48.704;9.210;2023-04-03T16:39:42;7.10;4.30
530;DHT22;251;48.704;9.210;2023-04-03T16:42:09;6.70;2.90
530;DHT22;251;48.704;9.210;2023-04-03T16:44:36;6.80;3.60
530;DHT22;251;48.704;9.210;2023-04-03T16:47:05;6.80;3.30
530;DHT22;251;48.704;9.210;2023-04-03T16:49:31;6.70;3.50
530;DHT22;251;48.704;9.210;2023-04-03T16:52:01;6.80;3.20
530;DHT22;251;48.704;9.210;2023-04-03T16:54:29;6.50;2.90
530;DHT22;251;48.704;9.210;2023-04-03T16:56:55;6.50;3.50
530;DHT22;251;48.704;9.210;2023-04-03T16:59:23;6.60;3.40
530;DHT22;251;48.704;9.210;2023-04-03T17:01:49;6.80;3.60
530;DHT22;251;48.704;9.210;2023-04-03T17:04:16;6.70;3.30
530;DHT22;251;48.704;9.210;2023-04-03T17:06:43;6.70;3.70
530;DHT22;251;48.704;9.210;2023-04-03T17:09:11;6.60;3.90
530;DHT22;251;48.704;9.210;2023-04-03T17:11:38;6.80;4.70
530;DHT22;251;48.704;9.210;2023-04-03T17:14:05;6.80;4.90
530;DHT22;251;48.704;9.210;2023-04-03T17:16:33;6.50;4.20
530;DHT22;251;48.704;9.210;2023-04-03T17:19:00;6.80;4.50